createdAt,value
2022-08-17T00:00:42.758Z,53238.69
2022-08-17T00:03:13.598Z,53236.69
2022-08-17T00:16:13.774Z,53272.47
2022-08-17T00:18:58.403Z,53238.69
2022-08-17T00:22:32.142Z,53236.69
2022-08-17T00:24:26.519Z,53228.75
2022-08-17T00:26:55.176Z,53228.75
2022-08-17T00:29:23.684Z,53232.72
2022-08-17T00:31:52.092Z,53238.69
2022-08-17T00:34:22.035Z,53240.66
2022-08-17T00:36:50.426Z,53200.91
2022-08-17T00:39:18.881Z,53262.53
2022-08-17T00:41:47.737Z,53240.66
2022-08-17T00:44:16.552Z,53228.75
2022-08-17T00:46:47.941Z,53280.41
2022-08-17T00:49:19.717Z,53260.53
2022-08-17T00:51:54.581Z,53268.50
2022-08-17T00:54:27.426Z,53252.59
2022-08-17T00:57:00.035Z,53276.44
2022-08-17T00:59:32.530Z,53256.56
2022-08-17T01:02:02.565Z,53260.53
2022-08-17T01:04:33.110Z,53260.53
2022-08-17T01:07:04.770Z,53276.44
2022-08-17T01:09:34.952Z,53280.41
2022-08-17T01:12:03.509Z,53288.38
2022-08-17T01:14:32.846Z,53290.38
2022-08-17T01:17:01.523Z,53288.38
2022-08-17T01:19:34.371Z,53262.53
2022-08-17T01:22:10.491Z,53292.34
2022-08-17T01:24:45.730Z,53292.34
2022-08-17T01:27:18.510Z,53292.34
2022-08-17T01:29:52.350Z,53294.34
2022-08-17T01:32:21.093Z,53278.44
2022-08-17T01:34:50.900Z,53280.41
2022-08-17T01:37:21.918Z,53280.41
2022-08-17T01:39:57.938Z,53282.41
2022-08-17T01:42:37.977Z,53280.41
2022-08-17T01:45:10.030Z,53296.31
2022-08-17T01:47:38.834Z,53316.22
2022-08-17T01:50:15.879Z,53300.31
2022-08-17T01:52:45.570Z,53328.13
2022-08-17T01:55:18.915Z,53290.38
2022-08-17T01:57:47.490Z,53306.28
2022-08-17T02:00:16.684Z,53260.53
2022-08-17T02:02:46.218Z,53262.53
2022-08-17T02:05:15.212Z,53296.31
2022-08-17T02:07:59.433Z,53282.41
2022-08-17T02:10:33.837Z,53324.16
2022-08-17T02:13:03.331Z,53264.53
2022-08-17T02:15:32.373Z,53294.34
2022-08-17T02:18:01.593Z,53306.28
2022-08-17T02:20:41.262Z,53258.56
2022-08-17T02:23:15.282Z,53308.25
2022-08-17T02:25:48.961Z,53298.31
2022-08-17T02:28:18.768Z,53324.16
2022-08-17T02:31:00.335Z,53300.31
2022-08-17T02:33:43.100Z,53292.34
2022-08-17T02:36:13.371Z,53274.47
2022-08-17T02:38:42.975Z,53306.28
2022-08-17T02:41:13.227Z,53284.41
2022-08-17T02:43:42.007Z,53298.31
2022-08-17T02:46:12.818Z,53282.41
2022-08-17T02:48:42.859Z,53334.09
2022-08-17T02:51:11.448Z,53316.22
2022-08-17T02:53:40.277Z,53292.34
2022-08-17T02:56:08.704Z,53312.22
2022-08-17T02:58:38.517Z,53304.28
2022-08-17T03:01:09.721Z,53294.34
2022-08-17T03:03:39.499Z,53286.38
2022-08-17T03:06:08.797Z,53284.41
2022-08-17T03:08:37.626Z,53306.28
2022-08-17T03:11:06.486Z,53278.44
2022-08-17T03:13:35.098Z,53276.44
2022-08-17T03:16:05.430Z,53296.31
2022-08-17T03:18:33.957Z,53280.41
2022-08-17T03:21:04.793Z,53290.38
2022-08-17T03:23:33.863Z,53296.31
2022-08-17T03:26:02.292Z,53286.38
2022-08-17T03:28:31.715Z,53284.41
2022-08-17T03:31:00.249Z,53260.53
2022-08-17T03:33:30.581Z,53286.38
2022-08-17T03:35:59.567Z,53272.47
2022-08-17T03:38:28.116Z,53290.38
2022-08-17T03:40:59.751Z,53246.63
2022-08-17T03:43:31.440Z,53220.78
2022-08-17T03:46:33.842Z,53264.53
2022-08-17T03:49:24.382Z,53294.34
2022-08-17T03:52:10.989Z,53280.41
2022-08-17T03:54:57.008Z,53284.41
2022-08-17T03:57:26.384Z,53244.63
2022-08-17T03:59:55.715Z,53266.50
2022-08-17T04:02:28.165Z,53244.63
2022-08-17T04:04:59.083Z,53260.53
2022-08-17T04:07:30.084Z,53268.50
2022-08-17T04:09:59.569Z,53278.44
2022-08-17T04:12:31.087Z,53272.47
2022-08-17T04:14:59.977Z,53286.38
2022-08-17T04:17:30.444Z,53288.38
2022-08-17T04:20:00.297Z,53262.53
2022-08-17T04:22:30.558Z,53274.47
2022-08-17T04:25:05.281Z,53264.53
2022-08-17T04:27:33.915Z,53250.59
2022-08-17T04:30:02.403Z,53278.44
2022-08-17T04:33:05.448Z,53272.47
2022-08-17T04:35:23.827Z,53256.56
2022-08-17T04:37:52.555Z,53278.44
2022-08-17T04:40:40.763Z,53288.38
2022-08-17T04:43:12.908Z,53278.44
2022-08-17T04:45:55.496Z,53284.41
2022-08-17T04:48:29.703Z,53246.63
2022-08-17T04:51:10.460Z,53246.63
2022-08-17T04:53:40.717Z,53264.53
2022-08-17T04:56:17.059Z,53290.38
2022-08-17T04:58:50.341Z,53284.41
2022-08-17T05:01:23.257Z,53300.31
2022-08-17T05:03:53.757Z,53248.63
2022-08-17T05:06:24.086Z,53254.59
2022-08-17T05:08:52.604Z,53244.63
2022-08-17T05:11:21.118Z,53220.78
2022-08-17T05:13:50.885Z,53216.81
2022-08-17T05:16:20.804Z,53238.69
2022-08-17T05:18:49.683Z,53238.69
2022-08-17T05:21:18.514Z,53240.66
2022-08-17T05:23:53.942Z,53218.81
2022-08-17T05:26:26.765Z,53220.78
2022-08-17T05:29:00.475Z,53208.84
2022-08-17T05:31:31.769Z,53208.84
2022-08-17T05:34:00.498Z,53230.72
2022-08-17T05:36:42.114Z,53216.81
2022-08-17T05:39:15.709Z,53208.84
2022-08-17T05:41:48.770Z,53212.84
2022-08-17T05:44:18.042Z,53212.84
2022-08-17T05:46:51.231Z,53212.84
2022-08-17T05:49:25.733Z,53230.72
2022-08-17T05:52:20.117Z,53242.66
2022-08-17T05:55:04.789Z,53222.78
2022-08-17T05:57:59.981Z,53244.63
2022-08-17T06:00:33.127Z,53260.53
2022-08-17T06:03:17.113Z,53260.53
2022-08-17T06:05:56.125Z,53260.53
2022-08-17T06:08:33.553Z,53280.41
2022-08-17T06:11:12.945Z,53266.50
2022-08-17T06:13:58.374Z,53276.44
2022-08-17T06:16:34.110Z,53308.25
2022-08-17T06:19:11.281Z,53266.50
2022-08-17T06:21:43.651Z,53292.34
2022-08-17T06:24:24.655Z,53304.28
2022-08-17T06:26:56.993Z,53300.31
2022-08-17T06:29:37.377Z,53282.41
2022-08-17T06:32:08.954Z,53298.31
2022-08-17T06:34:39.267Z,53300.31
2022-08-17T06:37:21.370Z,53284.41
2022-08-17T06:39:59.039Z,53288.38
2022-08-17T06:43:06.840Z,53256.56
2022-08-17T06:45:33.115Z,53228.75
2022-08-17T06:48:08.384Z,53244.63
2022-08-17T06:50:40.231Z,53254.59
2022-08-17T06:53:20.633Z,53260.53
2022-08-17T06:55:56.584Z,53224.75
2022-08-17T06:58:29.577Z,53246.63
2022-08-17T07:01:01.756Z,53232.72
2022-08-17T07:03:38.162Z,53222.78
2022-08-17T07:06:12.183Z,53248.63
2022-08-17T07:08:50.487Z,53214.81
2022-08-17T07:11:25.123Z,53220.78
2022-08-17T07:14:04.831Z,53228.75
2022-08-17T07:16:39.659Z,53228.75
2022-08-17T07:19:10.933Z,53234.69
2022-08-17T07:21:48.583Z,53238.69
2022-08-17T07:24:37.393Z,53248.63
2022-08-17T07:27:13.121Z,53248.63
2022-08-17T07:29:46.786Z,53204.88
2022-08-17T07:32:19.689Z,53226.75
2022-08-17T07:35:10.740Z,53256.56
2022-08-17T07:37:42.384Z,53256.56
2022-08-17T07:40:25.072Z,53284.41
2022-08-17T07:43:21.949Z,53266.50
2022-08-17T07:46:17.405Z,53224.75
2022-08-17T07:48:49.768Z,53258.56
2022-08-17T07:51:25.392Z,53268.50
2022-08-17T07:54:12.865Z,53238.69
2022-08-17T07:56:46.019Z,53260.53
2022-08-17T07:59:18.148Z,53262.53
2022-08-17T08:02:08.191Z,53218.81
2022-08-17T08:07:32.022Z,53226.75
2022-08-17T08:10:08.735Z,53228.75
2022-08-17T08:12:40.097Z,53242.66
2022-08-17T08:15:18.974Z,53230.72
2022-08-17T08:17:52.684Z,53212.84
2022-08-17T08:20:52.348Z,53204.88
2022-08-17T08:23:26.668Z,53214.81
2022-08-17T08:26:08.260Z,53220.78
2022-08-17T08:28:46.030Z,53188.97
2022-08-17T08:31:42.091Z,53208.84
2022-08-17T08:34:58.986Z,53177.06
2022-08-17T08:37:22.817Z,53179.03
2022-08-17T08:40:11.094Z,53171.09
2022-08-17T08:42:51.001Z,53165.13
2022-08-17T08:45:26.246Z,53177.06
2022-08-17T08:48:23.168Z,53169.09
2022-08-17T08:51:14.965Z,53163.13
2022-08-17T08:53:53.508Z,53200.91
2022-08-17T08:56:32.909Z,53206.88
2022-08-17T08:59:23.744Z,53173.06
2022-08-17T09:02:03.659Z,53206.88
2022-08-17T09:05:12.786Z,53196.94
2022-08-17T09:07:50.834Z,53159.16
2022-08-17T09:10:29.559Z,53187.00
2022-08-17T09:13:10.219Z,53200.91
2022-08-17T09:15:43.795Z,53177.06
2022-08-17T09:19:00.203Z,53200.91
2022-08-17T09:21:12.626Z,53192.94
2022-08-17T09:23:49.884Z,53165.13
2022-08-17T09:26:23.262Z,53159.16
2022-08-17T09:28:54.405Z,53177.06
2022-08-17T09:31:48.191Z,53137.28
2022-08-17T09:34:21.310Z,53167.13
2022-08-17T09:37:12.604Z,53167.13
2022-08-17T09:39:47.932Z,53198.91
2022-08-17T09:42:24.907Z,53165.13
2022-08-17T09:44:59.349Z,53169.09
2022-08-17T09:47:33.885Z,53179.03
2022-08-17T09:50:11.608Z,53192.94
2022-08-17T09:52:40.441Z,53192.94
2022-08-17T09:55:11.256Z,53198.91
2022-08-17T09:57:53.656Z,53181.03
2022-08-17T10:00:27.046Z,53198.91
2022-08-17T10:03:19.981Z,53244.63
2022-08-17T10:05:58.185Z,53220.78
2022-08-17T10:08:36.381Z,53216.81
2022-08-17T10:11:19.897Z,53248.63
2022-08-17T10:13:59.515Z,53246.63
2022-08-17T10:16:37.495Z,53248.63
2022-08-17T10:19:17.351Z,53216.81
2022-08-17T10:22:14.644Z,53212.84
2022-08-17T10:25:22.564Z,53222.78
2022-08-17T10:27:59.590Z,53240.66
2022-08-17T10:30:32.345Z,53242.66
2022-08-17T10:33:03.757Z,53238.69
2022-08-17T10:35:39.638Z,53252.59
2022-08-17T10:38:25.508Z,53272.47
2022-08-17T10:41:02.335Z,53262.53
2022-08-17T10:44:36.794Z,53252.59
2022-08-17T10:46:54.361Z,53302.28
2022-08-17T10:49:35.101Z,53266.50
2022-08-17T10:52:09.146Z,53262.53
2022-08-17T10:54:58.513Z,53258.56
2022-08-17T10:57:42.572Z,53272.47
2022-08-17T11:00:29.435Z,53298.31
2022-08-17T11:03:00.305Z,53258.56
2022-08-17T11:05:48.951Z,53292.34
2022-08-17T11:08:45.823Z,53306.28
2022-08-17T11:11:40.427Z,53316.22
2022-08-17T11:14:24.988Z,53302.28
2022-08-17T11:17:12.981Z,53310.25
2022-08-17T11:20:04.886Z,53324.16
2022-08-17T11:22:58.145Z,53316.22
2022-08-17T11:25:35.240Z,53348.00
2022-08-17T11:28:10.790Z,53379.81
2022-08-17T11:30:49.420Z,53407.66
2022-08-17T11:33:52.552Z,53367.91
2022-08-17T11:36:34.521Z,53407.66
2022-08-17T11:39:07.383Z,53455.38
2022-08-17T11:41:49.729Z,53453.38
2022-08-17T11:44:37.856Z,53463.31
2022-08-17T11:47:30.319Z,53550.78
2022-08-17T11:50:30.057Z,53586.56
2022-08-17T11:53:00.492Z,53596.53
2022-08-17T11:56:05.364Z,53674.06
2022-08-17T11:58:40.638Z,53755.56
2022-08-17T12:01:13.582Z,53831.13
2022-08-17T12:03:55.606Z,53900.72
2022-08-17T12:06:45.511Z,54020.00
2022-08-17T12:09:20.175Z,54159.19
2022-08-17T12:12:13.432Z,54232.78
2022-08-17T12:17:41.299Z,54779.66
2022-08-17T12:20:17.299Z,54887.06
2022-08-17T12:22:55.011Z,54940.75
2022-08-17T12:25:33.188Z,55143.63
2022-08-17T12:28:06.872Z,55547.44
2022-08-17T12:30:40.890Z,55457.91
2022-08-17T12:33:25.679Z,55740.38
2022-08-17T12:36:03.156Z,55893.56
2022-08-17T12:38:34.810Z,55436.03
2022-08-17T12:41:20.949Z,55595.16
2022-08-17T12:44:02.386Z,55436.03
2022-08-17T12:46:35.103Z,55253.03
2022-08-17T12:49:23.032Z,54964.63
2022-08-17T12:51:55.116Z,54936.78
2022-08-17T12:54:40.708Z,55000.41
2022-08-17T12:57:15.467Z,54970.59
2022-08-17T12:59:47.507Z,54879.09
2022-08-17T13:02:44.005Z,55038.22
2022-08-17T13:05:25.324Z,54853.25
2022-08-17T13:07:54.667Z,55024.28
2022-08-17T13:10:32.249Z,55022.31
2022-08-17T13:13:05.985Z,54899.00
2022-08-17T13:15:44.705Z,54847.28
2022-08-17T13:18:39.138Z,55002.41
2022-08-17T13:21:13.231Z,54916.88
2022-08-17T13:23:44.813Z,54916.88
2022-08-17T13:26:29.454Z,55018.31
2022-08-17T13:29:00.638Z,55318.66
2022-08-17T13:31:42.918Z,55081.97
2022-08-17T13:34:34.611Z,55292.81
2022-08-17T13:37:36.214Z,55740.38
2022-08-17T13:40:37.010Z,55414.16
2022-08-17T13:43:05.917Z,55475.81
2022-08-17T13:46:08.544Z,55207.28
2022-08-17T13:48:37.750Z,55173.47
2022-08-17T13:51:35.491Z,55171.47
2022-08-17T13:54:24.459Z,55201.31
2022-08-17T13:57:02.620Z,55314.69
2022-08-17T13:59:55.215Z,55209.25
2022-08-17T14:02:28.668Z,54912.91
2022-08-17T14:04:58.502Z,55105.84
2022-08-17T14:07:34.871Z,55081.97
2022-08-17T14:10:09.404Z,55008.38
2022-08-17T14:12:41.141Z,54797.56
2022-08-17T14:15:22.310Z,54757.78
2022-08-17T14:17:53.664Z,54640.44
2022-08-17T14:20:24.726Z,54479.34
2022-08-17T14:22:55.853Z,54779.66
2022-08-17T14:25:27.587Z,54692.16
2022-08-17T14:27:56.458Z,54308.34
2022-08-17T14:30:29.109Z,54035.91
2022-08-17T14:33:02.277Z,53988.19
2022-08-17T14:35:30.802Z,53938.50
2022-08-17T14:37:59.838Z,53948.44
2022-08-17T14:40:28.361Z,53882.81
2022-08-17T14:42:58.177Z,53908.66
2022-08-17T14:45:31.695Z,53745.63
2022-08-17T14:48:04.241Z,53687.97
2022-08-17T14:50:35.362Z,53648.22
2022-08-17T14:53:05.776Z,53729.72
2022-08-17T14:55:35.226Z,53526.94
2022-08-17T14:58:05.123Z,53532.91
2022-08-17T15:00:33.727Z,53515.00
2022-08-17T15:03:04.543Z,53520.97
2022-08-17T15:05:35.420Z,53483.19
2022-08-17T15:08:05.921Z,53459.34
2022-08-17T15:10:34.866Z,53447.41
2022-08-17T15:13:03.996Z,53425.53
2022-08-17T15:15:32.780Z,53427.53
2022-08-17T15:18:02.612Z,53447.41
2022-08-17T15:20:33.558Z,53393.75
2022-08-17T15:23:02.057Z,53401.69
2022-08-17T15:25:33.292Z,53395.72
2022-08-17T15:28:03.896Z,53393.75
2022-08-17T15:30:32.677Z,53367.91
2022-08-17T15:33:02.863Z,53403.69
2022-08-17T15:35:34.872Z,53367.91
2022-08-17T15:38:11.729Z,53367.91
2022-08-17T15:40:49.942Z,53348.00
2022-08-17T15:43:26.464Z,53298.31
2022-08-17T15:46:00.633Z,53298.31
2022-08-17T15:48:41.701Z,53256.56
2022-08-17T15:51:16.432Z,53284.41
2022-08-17T15:53:48.222Z,53236.69
2022-08-17T15:56:21.259Z,53240.66
2022-08-17T15:58:50.472Z,53214.81
2022-08-17T16:02:14.259Z,53224.75
2022-08-17T16:04:26.545Z,53246.63
2022-08-17T16:07:01.067Z,53244.63
2022-08-17T16:09:29.761Z,53220.78
2022-08-17T16:11:58.407Z,53238.69
2022-08-17T16:14:33.798Z,53238.69
2022-08-17T16:17:03.829Z,53226.75
2022-08-17T16:19:33.624Z,53252.59
2022-08-17T16:22:04.200Z,53234.69
2022-08-17T16:24:33.240Z,53240.66
2022-08-17T16:27:01.972Z,53230.72
2022-08-17T16:29:30.455Z,53240.66
2022-08-17T16:31:59.406Z,53240.66
2022-08-17T16:34:27.792Z,53242.66
2022-08-17T16:36:56.818Z,53242.66
2022-08-17T16:39:30.890Z,53240.66
2022-08-17T16:42:00.387Z,53224.75
2022-08-17T16:44:30.524Z,53248.63
2022-08-17T16:47:00.058Z,53206.88
2022-08-17T16:49:36.799Z,53260.53
2022-08-17T16:52:10.385Z,53260.53
2022-08-17T16:54:44.320Z,53248.63
2022-08-17T16:57:14.173Z,53250.59
2022-08-17T16:59:47.490Z,53240.66
2022-08-17T17:02:17.906Z,53272.47
2022-08-17T17:04:53.270Z,53218.81
2022-08-17T17:07:38.943Z,53250.59
2022-08-17T17:10:13.863Z,53236.69
2022-08-17T17:13:02.745Z,53252.59
2022-08-17T17:15:47.386Z,53220.78
2022-08-17T17:18:17.927Z,53256.56
2022-08-17T17:20:55.319Z,53276.44
2022-08-17T17:23:36.229Z,53264.53
2022-08-17T17:26:19.181Z,53246.63
2022-08-17T17:29:00.943Z,53294.34
2022-08-17T17:31:38.227Z,53274.47
2022-08-17T17:34:11.568Z,53286.38
2022-08-17T17:36:43.129Z,53254.59
2022-08-17T17:39:16.753Z,53262.53
2022-08-17T17:41:51.958Z,53296.31
2022-08-17T17:44:25.585Z,53290.38
2022-08-17T17:46:57.687Z,53298.31
2022-08-17T17:49:29.951Z,53292.34
2022-08-17T17:52:13.188Z,53304.28
2022-08-17T17:54:55.289Z,53314.22
2022-08-17T17:57:36.442Z,53336.09
2022-08-17T18:00:12.546Z,53300.31
2022-08-17T18:02:52.953Z,53298.31
2022-08-17T18:05:44.675Z,53320.19
2022-08-17T18:08:32.355Z,53328.13
2022-08-17T18:11:24.564Z,53353.97
2022-08-17T18:14:04.921Z,53320.19
2022-08-17T18:16:34.275Z,53296.31
2022-08-17T18:19:03.087Z,53338.06
2022-08-17T18:21:48.513Z,53352.00
2022-08-17T18:24:31.259Z,53355.97
2022-08-17T18:27:02.857Z,53340.06
2022-08-17T18:29:45.545Z,53355.97
2022-08-17T18:32:35.673Z,53357.94
2022-08-17T18:35:39.759Z,53405.66
2022-08-17T18:38:24.251Z,53383.78
2022-08-17T18:41:01.025Z,53389.75
2022-08-17T18:43:43.775Z,53445.44
2022-08-17T18:46:30.167Z,53425.53
2022-08-17T18:49:04.900Z,53447.41
2022-08-17T18:51:42.307Z,53467.28
2022-08-17T18:54:21.373Z,53491.16
2022-08-17T18:56:52.294Z,53499.09
2022-08-17T18:59:29.061Z,53491.16
2022-08-17T19:02:33.642Z,53538.88
2022-08-17T19:05:11.862Z,53554.78
2022-08-17T19:07:45.686Z,53556.75
2022-08-17T19:10:25.284Z,53594.53
2022-08-17T19:13:00.250Z,53576.63
2022-08-17T19:15:36.194Z,53586.56
2022-08-17T19:18:15.635Z,53554.78
2022-08-17T19:20:49.029Z,53562.72
2022-08-17T19:23:26.448Z,53604.47
2022-08-17T19:25:58.641Z,53602.47
2022-08-17T19:28:31.367Z,53626.34
2022-08-17T19:31:08.434Z,53594.53
2022-08-17T19:33:38.676Z,53630.31
2022-08-17T19:36:11.200Z,53594.53
2022-08-17T19:38:46.752Z,53610.44
2022-08-17T19:41:23.844Z,53604.47
2022-08-17T19:44:07.584Z,53632.31
2022-08-17T19:46:50.106Z,53622.38
2022-08-17T19:49:48.363Z,53594.53
2022-08-17T19:52:41.766Z,53624.34
2022-08-17T19:55:21.025Z,53662.13
2022-08-17T19:58:03.510Z,53644.22
2022-08-17T20:00:35.029Z,53701.88
2022-08-17T20:03:14.587Z,53642.25
2022-08-17T20:06:11.960Z,53693.94
2022-08-17T20:08:49.948Z,53743.66
2022-08-17T20:11:25.654Z,53721.78
2022-08-17T20:14:01.920Z,53711.84
2022-08-17T20:16:32.654Z,53733.69
2022-08-17T20:19:05.120Z,53735.69
2022-08-17T20:21:43.055Z,53733.69
2022-08-17T20:24:22.032Z,53721.78
2022-08-17T20:26:58.638Z,53701.88
2022-08-17T20:29:39.987Z,53731.72
2022-08-17T20:32:31.497Z,53737.69
2022-08-17T20:35:11.312Z,53725.75
2022-08-17T20:37:45.007Z,53791.34
2022-08-17T20:40:26.017Z,53817.22
2022-08-17T20:42:55.010Z,53825.16
2022-08-17T20:46:09.002Z,55155.56
2022-08-17T20:48:42.874Z,54391.84
2022-08-17T20:51:26.127Z,54266.59
2022-08-17T20:54:20.807Z,54994.47
2022-08-17T20:56:57.421Z,54584.75
2022-08-17T20:59:58.493Z,54863.19
2022-08-17T21:02:29.756Z,54875.13
2022-08-17T21:05:32.393Z,55696.63
2022-08-17T21:08:15.859Z,55599.16
2022-08-17T21:10:48.112Z,54857.22
2022-08-17T21:13:59.419Z,55507.63
2022-08-17T21:16:49.022Z,55430.06
2022-08-17T21:19:44.444Z,55227.16
2022-08-17T21:22:35.254Z,55909.50
2022-08-17T21:25:17.174Z,55547.44
2022-08-17T21:28:00.185Z,55613.06
2022-08-17T21:30:50.397Z,55239.09
2022-08-17T21:33:26.407Z,55459.91
2022-08-17T21:36:11.905Z,55372.38
2022-08-17T21:38:51.556Z,55225.19
2022-08-17T21:41:27.553Z,55177.44
2022-08-17T21:44:05.486Z,55245.06
2022-08-17T21:46:38.663Z,55308.72
2022-08-17T21:49:13.690Z,54956.66
2022-08-17T21:51:46.718Z,54974.56
2022-08-17T21:54:32.096Z,54843.28
2022-08-17T21:57:03.721Z,54984.50
2022-08-17T21:59:37.228Z,54791.59
2022-08-17T22:02:10.966Z,54704.09
2022-08-17T22:04:43.010Z,54753.81
2022-08-17T22:07:13.671Z,54708.06
2022-08-17T22:09:44.869Z,54823.41
2022-08-17T22:12:17.251Z,54720.00
2022-08-17T22:14:57.495Z,54811.47
2022-08-17T22:17:28.789Z,54793.56
2022-08-17T22:20:01.557Z,54606.63
2022-08-17T22:22:59.142Z,54958.66
2022-08-17T22:25:29.677Z,54934.78
2022-08-17T22:28:00.974Z,55203.31
2022-08-17T22:30:36.005Z,55473.81
2022-08-17T22:33:36.637Z,56359.13
2022-08-17T22:36:25.179Z,56003.00
2022-08-17T22:38:56.038Z,55577.25
2022-08-17T22:41:40.766Z,55346.50
2022-08-17T22:44:24.393Z,55272.91
2022-08-17T22:46:59.527Z,55360.44
2022-08-17T22:49:33.014Z,55698.63
2022-08-17T22:52:05.317Z,55740.38
2022-08-17T22:54:51.691Z,55652.84
2022-08-17T22:57:43.654Z,55607.09
2022-08-17T23:00:32.215Z,55547.44
2022-08-17T23:03:15.973Z,55517.59
2022-08-17T23:05:47.555Z,55241.09
2022-08-17T23:08:21.442Z,55489.75
2022-08-17T23:10:50.564Z,55221.19
2022-08-17T23:13:21.456Z,55034.22
2022-08-17T23:15:52.390Z,55276.91
2022-08-17T23:18:23.556Z,55420.13
2022-08-17T23:20:52.107Z,55541.47
2022-08-17T23:23:23.684Z,55292.81
2022-08-17T23:25:52.539Z,55066.06
2022-08-17T23:28:21.968Z,55231.16
2022-08-17T23:30:50.469Z,55159.53
2022-08-17T23:33:25.690Z,55193.34
2022-08-17T23:35:55.051Z,55630.97
2022-08-17T23:38:27.605Z,56341.22
2022-08-17T23:41:00.256Z,57575.09
2022-08-17T23:43:31.565Z,61279.34
2022-08-17T23:46:03.729Z,61082.09
2022-08-17T23:48:36.749Z,63525.78
2022-08-17T23:51:09.845Z,67725.59
2022-08-17T23:53:46.652Z,74770.16
2022-08-17T23:56:15.497Z,80921.25
2022-08-17T23:58:45.407Z,82717.38
